createdAt,value
2018-02-02T00:02:02.376Z,4.81
2018-02-02T00:04:28.508Z,4.74
2018-02-02T00:06:54.656Z,4.67
2018-02-02T00:09:20.821Z,4.60
2018-02-02T00:11:46.978Z,4.58
2018-02-02T00:14:13.154Z,4.60
2018-02-02T00:16:39.312Z,4.62
2018-02-02T00:19:05.428Z,4.58
2018-02-02T00:21:31.711Z,4.61
2018-02-02T00:23:57.892Z,4.65
2018-02-02T00:26:24.052Z,4.67
2018-02-02T00:28:50.180Z,4.70
2018-02-02T00:31:16.400Z,4.73
2018-02-02T00:33:42.540Z,4.76
2018-02-02T00:36:08.716Z,4.80
2018-02-02T00:38:34.949Z,4.81
2018-02-02T00:41:01.079Z,4.81
2018-02-02T00:43:27.249Z,4.85
2018-02-02T00:45:53.554Z,4.89
2018-02-02T00:48:19.696Z,4.88
2018-02-02T00:50:51.943Z,4.84
2018-02-02T00:53:18.240Z,4.85
2018-02-02T00:55:44.380Z,4.87
2018-02-02T00:58:10.561Z,4.86
2018-02-02T01:00:36.772Z,4.86
2018-02-02T01:03:02.937Z,4.80
2018-02-02T01:05:29.083Z,4.80
2018-02-02T01:07:55.343Z,4.74
2018-02-02T01:10:21.476Z,4.79
2018-02-02T01:12:47.622Z,4.81
2018-02-02T01:15:13.779Z,4.84
2018-02-02T01:17:39.901Z,4.79
2018-02-02T01:20:06.052Z,4.79
2018-02-02T01:22:32.198Z,4.84
2018-02-02T01:24:58.389Z,4.76
2018-02-02T01:27:24.560Z,4.68
2018-02-02T01:29:50.741Z,4.65
2018-02-02T01:32:16.887Z,4.63
2018-02-02T01:34:43.073Z,4.69
2018-02-02T01:37:09.243Z,4.71
2018-02-02T01:39:35.368Z,4.72
2018-02-02T01:42:01.522Z,4.76
2018-02-02T01:44:27.698Z,4.72
2018-02-02T01:46:53.866Z,4.70
2018-02-02T01:49:20.027Z,4.70
2018-02-02T01:51:46.172Z,4.73
2018-02-02T01:54:12.352Z,4.73
2018-02-02T01:56:38.487Z,4.74
2018-02-02T01:59:04.666Z,4.74
2018-02-02T02:01:30.897Z,4.71
2018-02-02T02:03:57.067Z,4.75
2018-02-02T02:06:23.215Z,4.78
2018-02-02T02:08:49.453Z,4.80
2018-02-02T02:11:15.592Z,4.82
2018-02-02T02:13:41.731Z,4.85
2018-02-02T02:16:07.971Z,4.88
2018-02-02T02:18:34.870Z,4.90
2018-02-02T02:21:01.017Z,4.85
2018-02-02T02:23:27.214Z,4.86
2018-02-02T02:25:53.376Z,4.92
2018-02-02T02:28:19.512Z,4.92
2018-02-02T02:30:45.760Z,4.94
2018-02-02T02:33:11.880Z,4.96
2018-02-02T02:35:38.019Z,4.96
2018-02-02T02:38:04.212Z,5.01
2018-02-02T02:40:30.360Z,5.01
2018-02-02T02:42:56.535Z,5.03
2018-02-02T02:45:22.675Z,5.02
2018-02-02T02:47:48.823Z,5.08
2018-02-02T02:50:15.011Z,5.15
2018-02-02T02:52:41.175Z,5.17
2018-02-02T02:55:07.330Z,5.13
2018-02-02T02:57:33.464Z,5.14
2018-02-02T02:59:59.791Z,5.11
2018-02-02T03:02:26.544Z,5.05
2018-02-02T03:04:52.670Z,5.05
2018-02-02T03:07:18.843Z,5.01
2018-02-02T03:09:44.983Z,4.96
2018-02-02T03:12:11.137Z,4.92
2018-02-02T03:14:37.389Z,4.87
2018-02-02T03:17:03.518Z,4.84
2018-02-02T03:19:29.664Z,4.76
2018-02-02T03:21:55.815Z,4.73
2018-02-02T03:24:21.988Z,4.76
2018-02-02T03:26:48.128Z,4.80
2018-02-02T03:29:14.314Z,4.85
2018-02-02T03:31:40.487Z,4.88
2018-02-02T03:34:06.718Z,4.86
2018-02-02T03:36:32.964Z,4.85
2018-02-02T03:38:59.129Z,4.91
2018-02-02T03:41:25.246Z,4.95
2018-02-02T03:43:51.409Z,5.00
2018-02-02T03:46:17.556Z,5.01
2018-02-02T03:48:43.728Z,5.08
2018-02-02T03:51:09.949Z,5.09
2018-02-02T03:53:36.109Z,5.09
2018-02-02T03:56:02.244Z,5.17
2018-02-02T03:58:28.442Z,5.26
2018-02-02T04:00:55.270Z,5.37
2018-02-02T04:03:21.473Z,5.27
2018-02-02T04:05:47.646Z,5.19
2018-02-02T04:08:13.788Z,5.08
2018-02-02T04:10:39.956Z,4.89
2018-02-02T04:13:06.134Z,4.79
2018-02-02T04:15:32.313Z,4.67
2018-02-02T04:17:58.441Z,4.64
2018-02-02T04:20:24.674Z,4.64
2018-02-02T04:22:50.825Z,4.62
2018-02-02T04:25:18.591Z,4.60
2018-02-02T04:27:44.811Z,4.57
2018-02-02T04:30:11.028Z,4.56
2018-02-02T04:32:37.237Z,4.55
2018-02-02T04:35:10.351Z,4.54
2018-02-02T04:37:36.537Z,4.56
2018-02-02T04:40:02.670Z,4.57
2018-02-02T04:42:28.899Z,4.58
2018-02-02T04:44:55.054Z,4.60
2018-02-02T04:47:21.208Z,4.60
2018-02-02T04:49:47.439Z,4.59
2018-02-02T04:52:13.634Z,4.58
2018-02-02T04:54:39.758Z,4.55
2018-02-02T04:57:05.928Z,4.54
2018-02-02T04:59:32.048Z,4.58
2018-02-02T05:01:58.231Z,4.63
2018-02-02T05:04:24.518Z,4.63
2018-02-02T05:06:50.683Z,4.62
2018-02-02T05:09:16.835Z,4.59
2018-02-02T05:11:43.039Z,4.53
2018-02-02T05:14:09.203Z,4.55
2018-02-02T05:16:35.339Z,4.55
2018-02-02T05:19:01.552Z,4.54
2018-02-02T05:21:27.764Z,4.56
2018-02-02T05:23:53.924Z,4.55
2018-02-02T05:26:20.099Z,4.52
2018-02-02T05:28:46.245Z,4.51
2018-02-02T05:31:12.386Z,4.50
2018-02-02T05:33:38.563Z,4.51
2018-02-02T05:36:04.727Z,4.54
2018-02-02T05:38:30.903Z,4.54
2018-02-02T05:40:57.088Z,4.59
2018-02-02T05:43:23.268Z,4.61
2018-02-02T05:45:49.407Z,4.65
2018-02-02T05:48:15.558Z,4.68
2018-02-02T05:50:41.739Z,4.74
2018-02-02T05:53:07.866Z,4.78
2018-02-02T05:55:34.030Z,4.80
2018-02-02T05:58:00.252Z,4.83
2018-02-02T06:00:26.406Z,4.85
2018-02-02T06:02:52.568Z,4.86
2018-02-02T06:05:18.718Z,4.90
2018-02-02T06:07:44.878Z,4.92
2018-02-02T06:10:11.067Z,4.91
2018-02-02T06:12:37.233Z,4.97
2018-02-02T06:15:03.409Z,4.98
2018-02-02T06:17:29.579Z,5.01
2018-02-02T06:19:55.809Z,5.01
2018-02-02T06:22:21.955Z,5.03
2018-02-02T06:24:48.165Z,5.00
2018-02-02T06:27:14.318Z,5.00
2018-02-02T06:29:40.464Z,5.02
2018-02-02T06:32:06.607Z,4.99
2018-02-02T06:34:32.768Z,5.01
2018-02-02T06:37:01.927Z,5.03
2018-02-02T06:39:28.168Z,5.04
2018-02-02T06:41:54.348Z,5.06
2018-02-02T06:44:20.475Z,5.10
2018-02-02T06:46:46.703Z,5.16
2018-02-02T06:49:12.894Z,5.17
2018-02-02T06:51:39.089Z,5.21
2018-02-02T06:54:05.335Z,5.23
2018-02-02T06:56:31.617Z,5.24
2018-02-02T06:58:57.773Z,5.24
2018-02-02T07:01:23.993Z,5.26
2018-02-02T07:03:50.166Z,5.27
2018-02-02T07:06:16.344Z,5.28
2018-02-02T07:08:42.566Z,5.26
2018-02-02T07:11:08.808Z,5.24
2018-02-02T07:13:34.942Z,5.20
2018-02-02T07:16:01.166Z,5.17
2018-02-02T07:18:27.350Z,5.20
2018-02-02T07:20:53.556Z,5.22
2018-02-02T07:23:19.696Z,5.24
2018-02-02T07:25:46.843Z,5.26
2018-02-02T07:28:12.979Z,5.28
2018-02-02T07:30:39.285Z,5.31
2018-02-02T07:33:05.431Z,5.30
2018-02-02T07:35:31.587Z,5.31
2018-02-02T07:37:57.854Z,5.35
2018-02-02T07:40:24.004Z,5.37
2018-02-02T07:42:50.161Z,5.40
2018-02-02T07:45:16.399Z,5.44
2018-02-02T07:47:42.550Z,5.44
2018-02-02T07:50:08.751Z,5.49
2018-02-02T07:52:34.975Z,5.52
2018-02-02T07:55:01.204Z,5.51
2018-02-02T07:57:27.403Z,5.52
2018-02-02T07:59:53.581Z,5.55
2018-02-02T08:02:19.863Z,5.58
2018-02-02T08:04:46.077Z,5.57
2018-02-02T08:07:12.225Z,5.55
2018-02-02T08:09:38.433Z,5.55
2018-02-02T08:12:04.617Z,5.57
2018-02-02T08:14:30.945Z,5.58
2018-02-02T08:16:57.094Z,5.58
2018-02-02T08:19:23.304Z,5.59
2018-02-02T08:21:49.529Z,5.58
2018-02-02T08:24:15.732Z,5.58
2018-02-02T08:26:41.870Z,5.62
2018-02-02T08:29:08.071Z,5.66
2018-02-02T08:31:34.278Z,5.74
2018-02-02T08:34:00.468Z,5.79
2018-02-02T08:36:26.674Z,5.87
2018-02-02T08:38:52.926Z,5.90
2018-02-02T08:41:19.023Z,5.94
2018-02-02T08:43:45.166Z,5.93
2018-02-02T08:46:11.296Z,5.92
2018-02-02T08:48:37.482Z,5.93
2018-02-02T08:51:03.669Z,5.93
2018-02-02T08:53:29.815Z,5.94
2018-02-02T08:55:55.922Z,5.97
2018-02-02T08:58:22.062Z,5.94
2018-02-02T09:00:54.310Z,5.93
2018-02-02T09:03:20.452Z,5.89
2018-02-02T09:05:46.640Z,5.89
2018-02-02T09:08:12.753Z,5.88
2018-02-02T09:10:38.925Z,5.88
2018-02-02T09:13:05.094Z,5.90
2018-02-02T09:15:33.381Z,5.96
2018-02-02T09:17:59.590Z,5.99
2018-02-02T09:20:25.792Z,6.02
2018-02-02T09:22:51.924Z,6.06
2018-02-02T09:25:18.192Z,6.08
2018-02-02T09:27:44.266Z,6.12
2018-02-02T09:30:10.479Z,6.16
2018-02-02T09:32:36.694Z,6.18
2018-02-02T09:35:02.938Z,6.17
2018-02-02T09:37:29.200Z,6.16
2018-02-02T09:39:55.408Z,6.09
2018-02-02T09:42:21.574Z,6.04
2018-02-02T09:44:47.779Z,5.93
2018-02-02T09:47:13.947Z,5.86
2018-02-02T09:49:40.137Z,5.80
2018-02-02T09:52:06.341Z,5.77
2018-02-02T09:54:32.516Z,5.67
2018-02-02T09:56:58.683Z,5.55
2018-02-02T09:59:24.788Z,5.44
2018-02-02T10:01:51.013Z,5.42
2018-02-02T10:04:17.168Z,5.39
2018-02-02T10:06:43.420Z,5.24
2018-02-02T10:09:09.660Z,5.13
2018-02-02T10:11:35.954Z,5.00
2018-02-02T10:14:02.106Z,4.95
2018-02-02T10:16:28.246Z,4.91
2018-02-02T10:18:54.428Z,4.88
2018-02-02T10:21:20.622Z,4.90
2018-02-02T10:23:46.753Z,4.92
2018-02-02T10:26:12.933Z,4.97
2018-02-02T10:28:39.170Z,5.05
2018-02-02T10:31:05.412Z,5.16
2018-02-02T10:33:31.540Z,5.28
2018-02-02T10:35:57.696Z,5.38
2018-02-02T10:38:23.852Z,5.44
2018-02-02T10:40:50.039Z,5.51
2018-02-02T10:43:16.186Z,5.60
2018-02-02T10:45:42.352Z,5.67
2018-02-02T10:48:08.515Z,5.76
2018-02-02T10:50:34.853Z,5.84
2018-02-02T10:53:00.995Z,5.94
2018-02-02T10:55:27.127Z,6.03
2018-02-02T10:57:53.270Z,6.05
2018-02-02T11:00:19.552Z,6.07
2018-02-02T11:02:51.843Z,6.10
2018-02-02T11:05:18.053Z,6.12
2018-02-02T11:07:44.302Z,6.11
2018-02-02T11:10:10.440Z,6.10
2018-02-02T11:12:36.733Z,6.16
2018-02-02T11:15:02.983Z,6.19
2018-02-02T11:17:29.177Z,6.26
2018-02-02T11:19:55.384Z,6.44
2018-02-02T11:22:21.593Z,6.61
2018-02-02T11:24:47.718Z,6.64
2018-02-02T11:27:13.864Z,6.68
2018-02-02T11:29:40.056Z,6.70
2018-02-02T11:32:06.487Z,6.80
2018-02-02T11:34:32.659Z,6.80
2018-02-02T11:36:58.875Z,6.89
2018-02-02T11:39:25.061Z,6.99
2018-02-02T11:41:51.181Z,7.00
2018-02-02T11:44:17.334Z,6.92
2018-02-02T11:46:43.469Z,6.88
2018-02-02T11:49:09.741Z,6.77
2018-02-02T11:51:35.964Z,6.71
2018-02-02T11:54:02.114Z,6.83
2018-02-02T11:56:28.278Z,7.04
2018-02-02T11:58:54.464Z,7.27
2018-02-02T12:01:20.664Z,7.56
2018-02-02T12:03:46.804Z,7.58
2018-02-02T12:06:12.996Z,7.35
2018-02-02T12:08:39.159Z,7.16
2018-02-02T12:11:05.301Z,7.07
2018-02-02T12:13:31.450Z,7.15
2018-02-02T12:15:57.765Z,7.42
2018-02-02T12:18:24.037Z,7.58
2018-02-02T12:20:50.289Z,7.39
2018-02-02T12:23:22.534Z,7.10
2018-02-02T12:25:54.620Z,6.72
2018-02-02T12:28:26.684Z,6.50
2018-02-02T12:30:58.950Z,6.49
2018-02-02T12:33:31.234Z,6.54
2018-02-02T12:35:58.449Z,6.70
2018-02-02T12:38:24.716Z,6.95
2018-02-02T12:40:50.866Z,7.27
2018-02-02T12:43:17.005Z,7.57
2018-02-02T12:45:43.198Z,7.59
2018-02-02T12:51:19.260Z,7.49
2018-02-02T12:53:45.439Z,7.44
2018-02-02T12:56:11.596Z,7.42
2018-02-02T12:58:37.807Z,7.48
2018-02-02T13:01:03.958Z,7.52
2018-02-02T13:03:30.084Z,7.57
2018-02-02T13:05:56.239Z,7.64
2018-02-02T13:08:22.453Z,7.45
2018-02-02T13:10:48.708Z,7.44
2018-02-02T13:13:14.903Z,7.46
2018-02-02T13:15:41.073Z,7.56
2018-02-02T13:18:07.205Z,7.72
2018-02-02T13:20:33.352Z,7.78
2018-02-02T13:22:59.441Z,7.83
2018-02-02T13:25:25.634Z,7.65
2018-02-02T13:27:51.786Z,7.59
2018-02-02T13:30:17.887Z,7.58
2018-02-02T13:32:43.979Z,7.64
2018-02-02T13:35:10.137Z,7.83
2018-02-02T13:37:36.412Z,8.12
2018-02-02T13:40:02.532Z,8.04
2018-02-02T13:42:28.632Z,7.57
2018-02-02T13:44:54.782Z,6.98
2018-02-02T13:47:20.917Z,6.35
2018-02-02T13:49:47.064Z,6.03
2018-02-02T13:52:13.167Z,5.81
2018-02-02T13:54:39.282Z,5.71
2018-02-02T13:57:05.386Z,5.62
2018-02-02T13:59:31.543Z,5.63
2018-02-02T14:01:57.665Z,5.59
2018-02-02T14:04:23.798Z,5.58
2018-02-02T14:06:49.930Z,5.64
2018-02-02T14:09:16.103Z,6.08
2018-02-02T14:11:42.226Z,6.38
2018-02-02T14:14:08.360Z,6.57
2018-02-02T14:16:34.493Z,6.71
2018-02-02T14:19:00.650Z,6.82
2018-02-02T14:21:26.793Z,6.81
2018-02-02T14:23:52.888Z,6.85
2018-02-02T14:26:19.029Z,6.78
2018-02-02T14:28:45.170Z,6.79
2018-02-02T14:31:11.301Z,6.80
2018-02-02T14:33:37.385Z,6.83
2018-02-02T14:36:03.523Z,6.81
2018-02-02T14:38:29.713Z,6.84
2018-02-02T14:40:55.832Z,6.88
2018-02-02T14:43:21.971Z,7.00
2018-02-02T14:45:48.115Z,7.10
2018-02-02T14:48:14.350Z,7.14
2018-02-02T14:50:40.470Z,7.04
2018-02-02T14:53:06.860Z,6.84
2018-02-02T14:55:33.042Z,6.72
2018-02-02T14:57:59.262Z,6.69
2018-02-02T15:00:25.433Z,6.65
2018-02-02T15:02:51.523Z,6.60
2018-02-02T15:05:17.647Z,6.56
2018-02-02T15:07:43.808Z,6.42
2018-02-02T15:10:10.198Z,6.29
2018-02-02T15:12:36.311Z,6.19
2018-02-02T15:15:02.490Z,6.05
2018-02-02T15:17:28.592Z,5.95
2018-02-02T15:19:54.821Z,5.87
2018-02-02T15:22:24.811Z,5.75
2018-02-02T15:24:50.931Z,5.67
2018-02-02T15:27:17.116Z,5.59
2018-02-02T15:29:43.295Z,5.49
2018-02-02T15:32:09.555Z,5.37
2018-02-02T15:34:35.705Z,5.31
2018-02-02T15:37:01.867Z,5.25
2018-02-02T15:39:28.075Z,5.20
2018-02-02T15:41:54.156Z,5.20
2018-02-02T15:44:20.357Z,5.25
2018-02-02T15:46:46.624Z,5.30
2018-02-02T15:49:12.832Z,5.37
2018-02-02T15:51:39.126Z,5.39
2018-02-02T15:54:05.251Z,5.38
2018-02-02T15:56:31.505Z,5.41
2018-02-02T15:58:57.693Z,5.46
2018-02-02T16:01:23.854Z,5.51
2018-02-02T16:03:50.083Z,5.57
2018-02-02T16:06:16.228Z,5.57
2018-02-02T16:08:42.431Z,5.58
2018-02-02T16:11:08.601Z,5.58
2018-02-02T16:13:34.781Z,5.57
2018-02-02T16:16:00.979Z,5.49
2018-02-02T16:18:27.183Z,5.49
2018-02-02T16:20:53.427Z,5.36
2018-02-02T16:23:19.558Z,5.27
2018-02-02T16:25:45.746Z,5.20
2018-02-02T16:28:11.899Z,5.13
2018-02-02T16:30:38.014Z,5.11
2018-02-02T16:33:04.318Z,5.12
2018-02-02T16:35:30.536Z,5.09
2018-02-02T16:37:56.751Z,5.09
2018-02-02T16:40:22.939Z,5.06
2018-02-02T16:42:49.097Z,4.99
2018-02-02T16:45:15.300Z,4.92
2018-02-02T16:47:41.452Z,4.88
2018-02-02T16:50:07.706Z,4.83
2018-02-02T16:52:33.824Z,4.78
2018-02-02T16:55:00.087Z,4.69
2018-02-02T16:57:26.209Z,4.61
2018-02-02T16:59:52.357Z,4.58
2018-02-02T17:02:18.484Z,4.60
2018-02-02T17:04:44.658Z,4.65
2018-02-02T17:07:10.803Z,4.68
2018-02-02T17:09:36.926Z,4.72
2018-02-02T17:12:03.122Z,4.73
2018-02-02T17:14:29.282Z,4.72
2018-02-02T17:16:55.455Z,4.73
2018-02-02T17:19:21.596Z,4.74
2018-02-02T17:21:47.729Z,4.69
2018-02-02T17:24:13.949Z,4.60
2018-02-02T17:26:40.110Z,4.54
2018-02-02T17:29:06.228Z,4.48
2018-02-02T17:31:32.389Z,4.45
2018-02-02T17:33:58.566Z,4.43
2018-02-02T17:36:24.727Z,4.40
2018-02-02T17:38:50.896Z,4.36
2018-02-02T17:41:17.045Z,4.29
2018-02-02T17:43:43.201Z,4.21
2018-02-02T17:46:09.391Z,4.16
2018-02-02T17:48:35.545Z,4.08
2018-02-02T17:51:01.712Z,4.01
2018-02-02T17:53:27.907Z,3.92
2018-02-02T17:55:54.063Z,3.85
2018-02-02T17:58:20.212Z,3.79
2018-02-02T18:00:59.294Z,3.71
2018-02-02T18:03:25.509Z,3.64
2018-02-02T18:05:51.701Z,3.58
2018-02-02T18:08:17.955Z,3.55
2018-02-02T18:10:44.112Z,3.53
2018-02-02T18:13:10.199Z,3.61
2018-02-02T18:15:36.376Z,3.69
2018-02-02T18:18:02.584Z,3.78
2018-02-02T18:20:28.727Z,3.91
2018-02-02T18:22:54.895Z,4.04
2018-02-02T18:25:21.183Z,4.17
2018-02-02T18:27:47.351Z,4.12
2018-02-02T18:30:13.509Z,4.06
2018-02-02T18:32:39.701Z,4.01
2018-02-02T18:35:05.892Z,3.95
2018-02-02T18:37:31.996Z,3.91
2018-02-02T18:39:58.274Z,3.84
2018-02-02T18:42:24.446Z,3.80
2018-02-02T18:44:52.270Z,3.74
2018-02-02T18:47:18.562Z,3.66
2018-02-02T18:49:44.756Z,3.60
2018-02-02T18:52:10.923Z,3.54
2018-02-02T18:54:37.224Z,3.51
2018-02-02T18:57:03.471Z,3.50
2018-02-02T18:59:29.620Z,3.50
2018-02-02T19:01:55.907Z,3.65
2018-02-02T19:04:22.146Z,3.94
2018-02-02T19:06:48.299Z,4.04
2018-02-02T19:09:14.513Z,4.09
2018-02-02T19:11:40.691Z,4.11
2018-02-02T19:14:06.885Z,4.07
2018-02-02T19:16:33.232Z,4.02
2018-02-02T19:19:00.045Z,3.97
2018-02-02T19:21:26.235Z,3.90
2018-02-02T19:23:52.400Z,3.92
2018-02-02T19:26:18.656Z,3.93
2018-02-02T19:28:44.846Z,3.89
2018-02-02T19:31:11.072Z,3.84
2018-02-02T19:33:37.385Z,3.76
2018-02-02T19:36:03.672Z,3.72
2018-02-02T19:38:29.879Z,3.67
2018-02-02T19:40:56.076Z,3.65
2018-02-02T19:43:22.466Z,3.63
2018-02-02T19:45:48.945Z,3.59
2018-02-02T19:48:21.627Z,3.54
2018-02-02T19:50:48.274Z,3.47
2018-02-02T19:53:14.635Z,3.39
2018-02-02T19:55:41.801Z,3.34
2018-02-02T19:58:08.004Z,3.33
2018-02-02T20:00:34.851Z,3.34
2018-02-02T20:03:01.180Z,3.40
2018-02-02T20:05:27.544Z,3.46
2018-02-02T20:07:53.708Z,3.49
2018-02-02T20:10:19.900Z,3.47
2018-02-02T20:12:46.064Z,3.43
2018-02-02T20:15:12.314Z,3.40
2018-02-02T20:17:38.484Z,3.37
2018-02-02T20:20:04.768Z,3.33
2018-02-02T20:22:30.952Z,3.28
2018-02-02T20:24:57.162Z,3.23
2018-02-02T20:27:23.328Z,3.17
2018-02-02T20:29:49.467Z,3.09
2018-02-02T20:32:15.669Z,3.02
2018-02-02T20:34:41.813Z,2.96
2018-02-02T20:37:08.022Z,2.89
2018-02-02T20:39:34.209Z,2.85
2018-02-02T20:42:01.780Z,2.83
2018-02-02T20:44:27.957Z,2.81
2018-02-02T20:46:54.163Z,2.79
2018-02-02T20:49:20.324Z,2.76
2018-02-02T20:51:46.528Z,2.71
2018-02-02T20:54:12.727Z,2.66
2018-02-02T20:56:38.954Z,2.61
2018-02-02T20:59:05.159Z,2.56
2018-02-02T21:01:31.399Z,2.51
2018-02-02T21:03:57.530Z,2.45
2018-02-02T21:06:23.785Z,2.43
2018-02-02T21:08:49.995Z,2.41
2018-02-02T21:11:16.188Z,2.36
2018-02-02T21:13:42.363Z,2.31
2018-02-02T21:16:08.624Z,2.27
2018-02-02T21:18:35.517Z,2.22
2018-02-02T21:21:01.722Z,2.16
2018-02-02T21:23:27.990Z,2.10
2018-02-02T21:25:54.145Z,2.05
2018-02-02T21:28:20.349Z,1.99
2018-02-02T21:30:46.539Z,1.94
2018-02-02T21:33:12.661Z,1.87
2018-02-02T21:35:38.795Z,1.85
2018-02-02T21:38:05.021Z,1.83
2018-02-02T21:40:31.171Z,1.79
2018-02-02T21:42:57.474Z,1.76
2018-02-02T21:45:23.734Z,1.73
2018-02-02T21:47:50.013Z,1.71
2018-02-02T21:50:16.170Z,1.67
2018-02-02T21:52:42.387Z,1.68
2018-02-02T21:55:08.550Z,1.68
2018-02-02T21:57:34.728Z,1.68
2018-02-02T22:00:00.975Z,1.67
2018-02-02T22:02:27.091Z,1.65
2018-02-02T22:04:53.320Z,1.65
2018-02-02T22:07:19.499Z,1.64
2018-02-02T22:09:46.453Z,1.62
2018-02-02T22:12:12.591Z,1.59
2018-02-02T22:14:38.791Z,1.56
2018-02-02T22:17:04.998Z,1.52
2018-02-02T22:19:31.216Z,1.48
2018-02-02T22:21:57.392Z,1.44
2018-02-02T22:24:23.584Z,1.41
2018-02-02T22:26:49.747Z,1.39
2018-02-02T22:29:16.124Z,1.36
2018-02-02T22:31:42.274Z,1.33
2018-02-02T22:34:08.523Z,1.32
2018-02-02T22:36:34.697Z,1.28
2018-02-02T22:39:00.913Z,1.26
2018-02-02T22:41:27.072Z,1.23
2018-02-02T22:43:53.300Z,1.23
2018-02-02T22:46:19.503Z,1.24
2018-02-02T22:48:46.435Z,1.22
2018-02-02T22:51:12.586Z,1.24
2018-02-02T22:53:38.756Z,1.25
2018-02-02T22:56:04.937Z,1.26
2018-02-02T22:58:31.179Z,1.30
2018-02-02T23:00:57.304Z,1.31
2018-02-02T23:03:23.434Z,1.38
2018-02-02T23:05:49.587Z,1.46
2018-02-02T23:08:15.870Z,1.53
2018-02-02T23:10:42.637Z,1.61
2018-02-02T23:13:08.824Z,1.71
2018-02-02T23:15:35.021Z,1.81
2018-02-02T23:18:01.155Z,1.88
2018-02-02T23:20:27.361Z,1.94
2018-02-02T23:22:53.493Z,2.02
2018-02-02T23:25:19.649Z,2.09
2018-02-02T23:27:45.853Z,2.15
2018-02-02T23:30:18.927Z,2.20
2018-02-02T23:32:45.059Z,2.23
2018-02-02T23:35:11.242Z,2.28
2018-02-02T23:37:37.482Z,2.35
2018-02-02T23:40:03.712Z,2.37
2018-02-02T23:42:29.871Z,2.37
2018-02-02T23:44:56.081Z,2.39
2018-02-02T23:47:22.189Z,2.40
2018-02-02T23:49:48.450Z,2.43
2018-02-02T23:52:14.617Z,2.48
2018-02-02T23:54:40.761Z,2.52
2018-02-02T23:57:06.977Z,2.57
2018-02-02T23:59:33.174Z,2.61
